WEATHER DATA

YESTERDAY
Time Temp. Dewp. Hum. Bar.
00:20 5.7 0.3 68 1018.3
00:30 5.6 0.2 68 1018.3
00:40 5.5 0.1 68 1018.3
00:50 5.3 0.1 69 1018.3
01:01 5.2 0 69 1018.2
01:10 5.1 -0.1 69 1018.3
01:20 5 0 70 1018.3
01:31 4.9 -0.1 70 1018.2
01:40 4.8 -0.2 70 1018.3
01:50 4.7 -0.3 70 1018.2
02:00 4.6 -0.3 70 1018.2
02:11 4.5 -0.3 71 1018.1
02:20 4.4 -0.3 71 1018.1
02:30 4.3 -0.4 71 1018.1
02:41 4.2 -0.5 71 1018.1
02:51 4.1 -0.6 71 1018
03:00 4 -0.7 71 1017.9
03:10 3.9 -0.6 72 1017.9
03:21 3.8 -0.7 72 1017.8
03:31 3.7 -0.8 72 1017.7
03:40 3.6 -0.9 72 1017.7
03:51 3.5 -0.9 72 1017.6
04:01 3.4 -1 72 1017.6
04:11 3.3 -0.9 73 1017.5
04:21 3.2 -1 73 1017.4
04:31 3.1 -1.1 73 1017.5
04:41 3.1 -1.1 73 1017.5
04:54 2.9 -1.3 73 1017.5
05:03 2.8 -1.4 73 1017.6
05:14 2.7 -1.3 74 1017.6
05:24 2.6 -1.4 74 1017.6
05:33 2.6 -1.4 74 1017.5
05:43 2.5 -1.5 74 1017.5
05:54 2.4 -1.5 74 1017.5
06:04 2.4 -1.5 74 1017.5
06:13 2.3 -1.6 74 1017.4
06:24 2.2 -1.6 75 1017.4
06:34 2.2 -1.6 75 1017.3
06:44 2.1 -1.6 75 1017.4
06:54 2 -1.7 75 1017.4
07:04 2 -1.7 75 1017.3
07:14 2 -1.7 75 1017.3
07:24 1.9 -1.8 75 1017.2
07:34 1.9 -1.8 75 1017.1
07:44 1.9 -1.8 75 1017.2
07:54 1.8 -1.9 75 1017.2
08:04 1.8 -1.7 76 1017.2
08:14 1.8 -1.7 76 1017.2
08:24 1.9 -1.7 76 1017.2
08:34 2.1 -1.5 76 1017.1
08:44 2.3 -1.3 76 1017.1
08:54 2.5 -1 77 1017.1
09:04 2.7 -0.8 77 1017.1
09:14 2.9 -0.6 77 1017.1
09:24 3.2 -0.4 77 1017
09:34 3.7 0 77 1017
09:44 4.1 0.4 77 1016.9
09:55 4.6 0.9 77 1016.9
10:04 5.1 1.4 77 1016.9
10:14 5.5 1.8 77 1017
10:25 6 2.3 77 1016.9
10:35 6.5 2.6 76 1016.8
10:44 7 3.1 76 1016.7
10:54 7.4 3.3 75 1016.7
11:05 7.9 3.6 74 1016.6
11:15 8.4 4 74 1016.6
11:24 8.8 4.2 73 1016.4
11:35 9.3 4.5 72 1016.4
11:45 9.8 4.6 70 1016.3
11:54 10.2 4.8 69 1016.2
12:05 10.7 5 68 1016
12:15 11.1 5.2 67 1015.8
12:25 11.5 5.2 65 1015.7
12:34 11.9 5.3 64 1015.6
12:45 12.3 5.5 63 1015.5
12:55 12.7 5.6 62 1015.3
13:05 13 5.7 61 1015.2
13:15 13.3 5.5 59 1015
13:25 13.6 5.5 58 1014.8
13:35 13.8 5.4 57 1014.5
13:45 14.1 5.7 57 1014.3
13:55 14.4 5.7 56 1014.1
14:05 14.7 5.8 55 1013.9
14:15 14.9 6 55 1013.7
14:26 15.2 6 54 1013.5
14:35 15.4 6.1 54 1013.3
14:45 15.6 6.1 53 1013.1
14:55 15.8 6 52 1013.1
15:06 15.9 5.8 51 1013.1
15:15 16.1 6 51 1013
15:25 16.3 5 47 1013
15:36 16.4 3.8 43 1012.9
15:46 16.5 3.6 42 1013
15:55 16.5 3.2 41 1013
16:06 16.3 3 41 1012.9
16:16 16 2.8 41 1012.9
16:26 15.7 2.8 42 1012.9
16:35 15.5 2.7 42 1012.9
16:46 15.3 2.5 42 1012.9
16:56 15 1.9 41 1013
17:06 14.8 1.7 41 1013
17:16 14.5 1.8 42 1013
17:26 14.2 1.8 43 1013.1
17:46 13.7 2 45 1013.2
17:56 13.4 2 46 1013.2
18:06 13.1 2.1 47 1013.2
18:16 12.9 2.2 48 1013.3
18:26 12.6 2.2 49 1013.3
18:36 12.3 1.9 49 1013.4
18:46 12 2.2 51 1013.4
18:56 11.6 1.8 51 1013.3
19:07 11.3 1.8 52 1013.3
19:16 11.1 1.9 53 1013.4
19:26 10.8 1.9 54 1013.3
19:37 10.6 1.7 54 1013.3
19:47 10.3 1.7 55 1013.4
19:56 10.1 1.7 56 1013.4
20:06 9.9 1.8 57 1013.3
20:17 9.6 1.5 57 1013.4
20:27 9.4 1.6 58 1013.7
20:36 9.1 1.5 59 1013.7
20:47 8.9 1.3 59 1013.8
20:57 8.6 1.3 60 1013.9
21:07 8.4 1.1 60 1013.9
21:17 8.2 1.1 61 1013.9
21:27 8 0.9 61 1013.8
21:37 7.8 1 62 1014
21:47 7.7 0.9 62 1014
21:57 7.5 0.9 63 1014
22:07 7.4 0.8 63 1013.9
22:17 7.2 0.9 64 1013.9
22:27 7.1 0.8 64 1014
22:37 7 0.7 64 1013.9
22:47 6.8 0.7 65 1014.1
22:57 6.7 0.6 65 1014
23:07 6.6 0.7 66 1014
23:17 6.4 0.5 66 1014.1
23:27 6.3 0.4 66 1014.1
23:38 6.1 0.2 66 1014.1
23:47 6 0.3 67 1013.9
23:57 5.9 0.2 67 1014

DAY STATISTIC

2019-02-18
TEMPERATURE
AVERAGE
7.9
HIGH
16.5
15:46
LOW
1.8
07:54
PRESSURE
AVERAGE
1015.6
HIGH
1018.3
00:20
LOW
1012.9
15:36
DEWPOINT
AVERAGE
1.3
HIGH
6.1
14:35
LOW
-1.9
07:54
HUMIDITY
AVERAGE
64
HIGH
77
08:54
LOW
41
15:55
TEMPERATURE (°C)
LOW
1.8
HIGH
16.5
AVERAGE
7.9
PRESSURE (hpa)
LOW
1012.9
HIGH
1018.3
AVERAGE
1015.6
DEVICE